sensor_id;sensor_type;location;lat;lon;timestamp;pressure;altitude;pressure_sealevel;temperature;humidity
64230;BME280;50547;49.498;0.092;2023-12-28T10:17:55;1011.90;;;10.88;81.80
64230;BME280;50547;49.498;0.092;2023-12-28T10:20:26;1011.92;;;10.90;81.43
64230;BME280;50547;49.498;0.092;2023-12-28T10:23:05;1012.04;;;10.95;81.32
64230;BME280;50547;49.498;0.092;2023-12-28T10:25:35;1011.65;;;11.03;80.84
64230;BME280;50547;49.498;0.092;2023-12-28T10:28:09;1012.12;;;11.01;81.38
64230;BME280;50547;49.498;0.092;2023-12-28T10:30:39;1012.02;;;10.99;81.62
64230;BME280;50547;49.498;0.092;2023-12-28T10:33:07;1012.08;;;11.02;81.49
64230;BME280;50547;49.498;0.092;2023-12-28T10:35:36;1012.06;;;11.05;81.16
64230;BME280;50547;49.498;0.092;2023-12-28T10:38:10;1011.79;;;10.81;82.57
64230;BME280;50547;49.498;0.092;2023-12-28T10:40:42;1012.04;;;10.99;81.44
64230;BME280;50547;49.498;0.092;2023-12-28T10:43:15;1012.00;;;11.03;81.14
64230;BME280;50547;49.498;0.092;2023-12-28T10:45:46;1011.79;;;11.10;80.81
64230;BME280;50547;49.498;0.092;2023-12-28T10:48:24;1012.00;;;11.09;81.14
64230;BME280;50547;49.498;0.092;2023-12-28T10:50:58;1011.98;;;11.05;81.78
64230;BME280;50547;49.498;0.092;2023-12-28T10:53:36;1011.85;;;11.13;81.07
64230;BME280;50547;49.498;0.092;2023-12-28T10:56:20;1011.98;;;11.16;81.18
64230;BME280;50547;49.498;0.092;2023-12-28T10:58:48;1011.88;;;11.20;80.78
64230;BME280;50547;49.498;0.092;2023-12-28T11:01:23;1012.06;;;11.15;80.97
64230;BME280;50547;49.498;0.092;2023-12-28T11:04:00;1011.85;;;11.29;80.24
64230;BME280;50547;49.498;0.092;2023-12-28T11:06:32;1011.86;;;11.30;80.25
64230;BME280;50547;49.498;0.092;2023-12-28T11:09:03;1011.86;;;11.31;80.19
64230;BME280;50547;49.498;0.092;2023-12-28T11:11:30;1011.92;;;11.31;80.08
64230;BME280;50547;49.498;0.092;2023-12-28T11:14:01;1011.81;;;11.34;79.62
64230;BME280;50547;49.498;0.092;2023-12-28T11:16:30;1012.00;;;11.36;79.92
64230;BME280;50547;49.498;0.092;2023-12-28T11:19:01;1011.81;;;11.36;79.45
64230;BME280;50547;49.498;0.092;2023-12-28T11:21:28;1012.08;;;11.36;79.87
64230;BME280;50547;49.498;0.092;2023-12-28T11:23:57;1012.00;;;11.30;80.24
64230;BME280;50547;49.498;0.092;2023-12-28T11:26:27;1011.88;;;11.37;79.78
64230;BME280;50547;49.498;0.092;2023-12-28T11:29:00;1011.81;;;11.44;79.25
64230;BME280;50547;49.498;0.092;2023-12-28T11:31:32;1011.90;;;11.42;79.62
64230;BME280;50547;49.498;0.092;2023-12-28T11:34:04;1011.94;;;11.46;79.65
64230;BME280;50547;49.498;0.092;2023-12-28T11:36:34;1011.85;;;11.47;79.32
64230;BME280;50547;49.498;0.092;2023-12-28T11:39:05;1011.81;;;11.55;78.73
64230;BME280;50547;49.498;0.092;2023-12-28T11:41:36;1011.73;;;11.53;78.74
64230;BME280;50547;49.498;0.092;2023-12-28T11:44:05;1011.63;;;11.54;78.45
64230;BME280;50547;49.498;0.092;2023-12-28T11:46:35;1011.69;;;11.59;78.08
64230;BME280;50547;49.498;0.092;2023-12-28T11:49:05;1011.57;;;11.59;78.37
64230;BME280;50547;49.498;0.092;2023-12-28T11:51:35;1011.61;;;11.61;78.18
64230;BME280;50547;49.498;0.092;2023-12-28T11:54:05;1011.53;;;11.56;78.54
64230;BME280;50547;49.498;0.092;2023-12-28T11:56:34;1011.53;;;11.58;78.55
64230;BME280;50547;49.498;0.092;2023-12-28T11:59:05;1011.55;;;11.56;78.47
64230;BME280;50547;49.498;0.092;2023-12-28T12:01:33;1011.28;;;11.57;77.35
64230;BME280;50547;49.498;0.092;2023-12-28T12:04:03;1011.41;;;11.68;77.46
64230;BME280;50547;49.498;0.092;2023-12-28T12:06:32;1011.39;;;11.68;77.49
64230;BME280;50547;49.498;0.092;2023-12-28T12:09:01;1011.24;;;11.64;78.33
64230;BME280;50547;49.498;0.092;2023-12-28T12:11:29;1011.30;;;11.64;78.37
64230;BME280;50547;49.498;0.092;2023-12-28T12:13:58;1011.38;;;11.60;78.10
64230;BME280;50547;49.498;0.092;2023-12-28T12:16:27;1011.20;;;11.54;77.98
64230;BME280;50547;49.498;0.092;2023-12-28T12:18:57;1011.26;;;11.66;77.84
64230;BME280;50547;49.498;0.092;2023-12-28T12:21:27;1011.20;;;11.55;78.13
64230;BME280;50547;49.498;0.092;2023-12-28T12:23:56;1011.12;;;11.60;77.75
64230;BME280;50547;49.498;0.092;2023-12-28T12:26:25;1011.10;;;11.64;77.52
64230;BME280;50547;49.498;0.092;2023-12-28T12:28:54;1011.16;;;11.79;76.96
64230;BME280;50547;49.498;0.092;2023-12-28T12:31:23;1011.16;;;11.89;76.13
64230;BME280;50547;49.498;0.092;2023-12-28T12:33:52;1011.12;;;12.03;75.54
64230;BME280;50547;49.498;0.092;2023-12-28T12:36:21;1011.10;;;12.03;75.71
64230;BME280;50547;49.498;0.092;2023-12-28T12:38:50;1011.02;;;12.07;75.81
64230;BME280;50547;49.498;0.092;2023-12-28T12:41:35;1010.97;;;12.07;76.04
64230;BME280;50547;49.498;0.092;2023-12-28T12:44:04;1011.08;;;11.98;76.45
64230;BME280;50547;49.498;0.092;2023-12-28T12:46:33;1011.08;;;12.02;76.50
64230;BME280;50547;49.498;0.092;2023-12-28T12:49:02;1011.08;;;12.03;76.83
64230;BME280;50547;49.498;0.092;2023-12-28T12:51:31;1011.04;;;12.04;76.33
64230;BME280;50547;49.498;0.092;2023-12-28T12:54:02;1010.97;;;12.14;76.10
64230;BME280;50547;49.498;0.092;2023-12-28T12:56:32;1011.00;;;12.08;75.58
64230;BME280;50547;49.498;0.092;2023-12-28T12:59:01;1010.95;;;12.03;76.42
64230;BME280;50547;49.498;0.092;2023-12-28T13:01:30;1010.97;;;11.98;75.66
64230;BME280;50547;49.498;0.092;2023-12-28T13:03:58;1010.89;;;12.00;76.38
64230;BME280;50547;49.498;0.092;2023-12-28T13:06:29;1010.91;;;12.03;75.94
64230;BME280;50547;49.498;0.092;2023-12-28T13:08:58;1011.00;;;12.11;75.72
64230;BME280;50547;49.498;0.092;2023-12-28T13:11:37;1010.91;;;12.06;75.90
64230;BME280;50547;49.498;0.092;2023-12-28T13:14:06;1010.97;;;12.03;75.86
64230;BME280;50547;49.498;0.092;2023-12-28T13:16:36;1010.69;;;11.92;76.96
64230;BME280;50547;49.498;0.092;2023-12-28T13:19:05;1011.02;;;11.99;76.39
64230;BME280;50547;49.498;0.092;2023-12-28T13:21:33;1010.77;;;11.63;78.25
64230;BME280;50547;49.498;0.092;2023-12-28T13:24:03;1010.53;;;11.75;77.74
64230;BME280;50547;49.498;0.092;2023-12-28T13:26:32;1010.83;;;11.93;77.12
64230;BME280;50547;49.498;0.092;2023-12-28T13:29:01;1010.79;;;11.82;76.99
64230;BME280;50547;49.498;0.092;2023-12-28T13:31:30;1010.85;;;11.82;77.09
64230;BME280;50547;49.498;0.092;2023-12-28T13:33:59;1010.81;;;11.90;76.15
64230;BME280;50547;49.498;0.092;2023-12-28T13:36:25;1010.77;;;11.97;75.75
64230;BME280;50547;49.498;0.092;2023-12-28T13:38:54;1010.35;;;12.04;75.65
64230;BME280;50547;49.498;0.092;2023-12-28T13:41:23;1010.73;;;12.27;74.72
64230;BME280;50547;49.498;0.092;2023-12-28T13:43:52;1010.43;;;12.20;74.83
64230;BME280;50547;49.498;0.092;2023-12-28T13:46:21;1010.79;;;12.03;76.50
64230;BME280;50547;49.498;0.092;2023-12-28T13:48:50;1010.77;;;11.92;77.58
64230;BME280;50547;49.498;0.092;2023-12-28T13:51:19;1010.47;;;11.87;77.30
64230;BME280;50547;49.498;0.092;2023-12-28T13:53:48;1010.71;;;11.96;76.82
64230;BME280;50547;49.498;0.092;2023-12-28T13:56:17;1010.91;;;11.99;76.64
64230;BME280;50547;49.498;0.092;2023-12-28T13:58:46;1010.59;;;11.94;76.31
64230;BME280;50547;49.498;0.092;2023-12-28T14:01:16;1010.51;;;11.85;76.86
64230;BME280;50547;49.498;0.092;2023-12-28T14:03:45;1010.69;;;11.82;76.93
64230;BME280;50547;49.498;0.092;2023-12-28T14:06:14;1010.35;;;11.92;75.85
64230;BME280;50547;49.498;0.092;2023-12-28T14:08:43;1010.75;;;12.16;74.94
64230;BME280;50547;49.498;0.092;2023-12-28T14:11:12;1010.73;;;12.30;74.80
64230;BME280;50547;49.498;0.092;2023-12-28T14:13:41;1010.69;;;12.27;75.14
64230;BME280;50547;49.498;0.092;2023-12-28T14:16:10;1010.73;;;12.38;74.76
64230;BME280;50547;49.498;0.092;2023-12-28T14:18:39;1010.77;;;12.42;74.55
64230;BME280;50547;49.498;0.092;2023-12-28T14:21:08;1010.73;;;12.39;74.68
64230;BME280;50547;49.498;0.092;2023-12-28T14:23:38;1010.57;;;12.46;74.68
64230;BME280;50547;49.498;0.092;2023-12-28T14:26:12;1010.69;;;12.34;74.90
64230;BME280;50547;49.498;0.092;2023-12-28T14:28:42;1010.69;;;12.31;75.11
64230;BME280;50547;49.498;0.092;2023-12-28T14:31:12;1010.71;;;12.35;74.97
64230;BME280;50547;49.498;0.092;2023-12-28T14:33:42;1010.61;;;12.39;75.33
64230;BME280;50547;49.498;0.092;2023-12-28T14:36:20;1010.57;;;12.29;75.79
64230;BME280;50547;49.498;0.092;2023-12-28T14:38:53;1010.61;;;12.34;75.48
64230;BME280;50547;49.498;0.092;2023-12-28T14:41:23;1010.35;;;12.29;75.15
64230;BME280;50547;49.498;0.092;2023-12-28T14:43:49;1010.47;;;12.36;75.13
64230;BME280;50547;49.498;0.092;2023-12-28T14:46:18;1010.47;;;12.29;75.49
64230;BME280;50547;49.498;0.092;2023-12-28T14:48:48;1010.53;;;12.21;76.22
64230;BME280;50547;49.498;0.092;2023-12-28T14:51:17;1010.53;;;12.23;76.06
64230;BME280;50547;49.498;0.092;2023-12-28T14:53:47;1010.57;;;12.27;75.79
64230;BME280;50547;49.498;0.092;2023-12-28T14:56:16;1010.59;;;12.22;76.15
64230;BME280;50547;49.498;0.092;2023-12-28T14:58:46;1010.45;;;12.23;76.37
64230;BME280;50547;49.498;0.092;2023-12-28T15:01:16;1010.35;;;12.22;76.06
64230;BME280;50547;49.498;0.092;2023-12-28T15:03:46;1010.41;;;12.23;76.19
64230;BME280;50547;49.498;0.092;2023-12-28T15:06:15;1010.39;;;12.18;76.51
64230;BME280;50547;49.498;0.092;2023-12-28T15:08:44;1010.47;;;12.09;77.01
64230;BME280;50547;49.498;0.092;2023-12-28T15:11:14;1010.31;;;12.07;77.21
64230;BME280;50547;49.498;0.092;2023-12-28T15:13:43;1010.27;;;12.04;76.93
64230;BME280;50547;49.498;0.092;2023-12-28T15:16:13;1010.47;;;12.08;76.98
64230;BME280;50547;49.498;0.092;2023-12-28T15:18:43;1010.31;;;12.01;77.41
64230;BME280;50547;49.498;0.092;2023-12-28T15:21:13;1010.33;;;11.93;77.64
64230;BME280;50547;49.498;0.092;2023-12-28T15:23:42;1010.33;;;11.94;77.43
64230;BME280;50547;49.498;0.092;2023-12-28T15:26:13;1010.41;;;11.92;77.27
64230;BME280;50547;49.498;0.092;2023-12-28T15:28:46;1010.39;;;11.85;77.76
64230;BME280;50547;49.498;0.092;2023-12-28T15:31:15;1010.45;;;11.79;77.91
64230;BME280;50547;49.498;0.092;2023-12-28T15:33:44;1010.41;;;11.82;77.62
64230;BME280;50547;49.498;0.092;2023-12-28T15:36:13;1010.39;;;11.80;77.61
64230;BME280;50547;49.498;0.092;2023-12-28T15:38:43;1010.47;;;11.75;77.47
64230;BME280;50547;49.498;0.092;2023-12-28T15:41:12;1010.43;;;11.70;77.54
64230;BME280;50547;49.498;0.092;2023-12-28T15:43:41;1010.43;;;11.62;77.98
64230;BME280;50547;49.498;0.092;2023-12-28T15:46:10;1010.35;;;11.68;77.35
64230;BME280;50547;49.498;0.092;2023-12-28T15:48:39;1010.45;;;11.64;77.74
64230;BME280;50547;49.498;0.092;2023-12-28T15:51:08;1010.12;;;11.53;78.37
64230;BME280;50547;49.498;0.092;2023-12-28T15:53:37;1010.29;;;11.51;78.23
64230;BME280;50547;49.498;0.092;2023-12-28T15:56:07;1010.33;;;11.50;78.14
64230;BME280;50547;49.498;0.092;2023-12-28T15:58:36;1010.31;;;11.50;78.27
64230;BME280;50547;49.498;0.092;2023-12-28T16:01:05;1010.35;;;11.44;78.32
64230;BME280;50547;49.498;0.092;2023-12-28T16:03:34;1010.29;;;11.38;78.61
64230;BME280;50547;49.498;0.092;2023-12-28T16:06:04;1010.29;;;11.38;78.48
64230;BME280;50547;49.498;0.092;2023-12-28T16:08:33;1010.41;;;11.39;78.19
64230;BME280;50547;49.498;0.092;2023-12-28T16:11:02;1010.43;;;11.33;78.39
64230;BME280;50547;49.498;0.092;2023-12-28T16:13:33;1010.39;;;11.38;78.23
64230;BME280;50547;49.498;0.092;2023-12-28T16:16:04;1010.49;;;11.33;78.34
64230;BME280;50547;49.498;0.092;2023-12-28T16:18:34;1010.47;;;11.36;78.01
64230;BME280;50547;49.498;0.092;2023-12-28T16:21:04;1010.49;;;11.40;77.83
64230;BME280;50547;49.498;0.092;2023-12-28T16:23:35;1010.69;;;11.38;77.94
64230;BME280;50547;49.498;0.092;2023-12-28T16:26:04;1010.53;;;11.30;78.61
64230;BME280;50547;49.498;0.092;2023-12-28T16:28:33;1010.49;;;11.31;78.34
64230;BME280;50547;49.498;0.092;2023-12-28T16:31:03;1010.49;;;11.29;78.22
64230;BME280;50547;49.498;0.092;2023-12-28T16:33:32;1010.55;;;11.26;78.42
64230;BME280;50547;49.498;0.092;2023-12-28T16:36:02;1010.55;;;11.27;78.28
64230;BME280;50547;49.498;0.092;2023-12-28T16:38:31;1010.51;;;11.27;78.28
64230;BME280;50547;49.498;0.092;2023-12-28T16:41:00;1010.45;;;11.26;77.98
64230;BME280;50547;49.498;0.092;2023-12-28T16:43:34;1010.43;;;11.27;78.04
64230;BME280;50547;49.498;0.092;2023-12-28T16:46:04;1010.39;;;11.27;77.83
64230;BME280;50547;49.498;0.092;2023-12-28T16:48:43;1010.41;;;11.29;77.70
64230;BME280;50547;49.498;0.092;2023-12-28T16:51:12;1010.37;;;11.26;77.97
64230;BME280;50547;49.498;0.092;2023-12-28T16:53:46;1010.31;;;11.22;77.87
64230;BME280;50547;49.498;0.092;2023-12-28T16:56:40;1010.37;;;11.22;77.68
64230;BME280;50547;49.498;0.092;2023-12-28T16:59:14;1010.39;;;11.18;78.01
64230;BME280;50547;49.498;0.092;2023-12-28T17:01:43;1010.51;;;11.19;77.69
64230;BME280;50547;49.498;0.092;2023-12-28T17:04:13;1010.51;;;11.13;78.10
64230;BME280;50547;49.498;0.092;2023-12-28T17:06:42;1010.47;;;11.17;77.98
64230;BME280;50547;49.498;0.092;2023-12-28T17:09:11;1010.47;;;11.19;77.89
64230;BME280;50547;49.498;0.092;2023-12-28T17:11:45;1010.55;;;11.20;77.95
64230;BME280;50547;49.498;0.092;2023-12-28T17:14:15;1010.43;;;11.18;77.92
64230;BME280;50547;49.498;0.092;2023-12-28T17:16:45;1010.49;;;11.14;78.30
64230;BME280;50547;49.498;0.092;2023-12-28T17:19:14;1010.55;;;11.04;78.83
64230;BME280;50547;49.498;0.092;2023-12-28T17:21:44;1010.53;;;11.09;78.55
64230;BME280;50547;49.498;0.092;2023-12-28T17:24:18;1010.55;;;11.06;78.61
64230;BME280;50547;49.498;0.092;2023-12-28T17:26:56;1010.39;;;11.06;78.13
64230;BME280;50547;49.498;0.092;2023-12-28T17:29:30;1010.47;;;11.02;78.73
64230;BME280;50547;49.498;0.092;2023-12-28T17:32:02;1010.59;;;10.99;78.78
64230;BME280;50547;49.498;0.092;2023-12-28T17:34:32;1010.45;;;11.02;78.60
64230;BME280;50547;49.498;0.092;2023-12-28T17:37:17;1010.55;;;11.03;77.96
64230;BME280;50547;49.498;0.092;2023-12-28T17:40:02;1010.47;;;11.05;77.90
64230;BME280;50547;49.498;0.092;2023-12-28T17:42:38;1010.49;;;11.04;78.26
64230;BME280;50547;49.498;0.092;2023-12-28T17:45:09;1010.57;;;11.00;78.42
64230;BME280;50547;49.498;0.092;2023-12-28T17:47:45;1010.35;;;10.99;78.33
64230;BME280;50547;49.498;0.092;2023-12-28T17:50:20;1010.55;;;10.96;78.72
64230;BME280;50547;49.498;0.092;2023-12-28T17:52:50;1010.73;;;10.95;78.61
64230;BME280;50547;49.498;0.092;2023-12-28T17:55:20;1010.59;;;10.93;78.82
64230;BME280;50547;49.498;0.092;2023-12-28T17:57:49;1010.53;;;10.90;78.85
64230;BME280;50547;49.498;0.092;2023-12-28T18:00:19;1010.85;;;10.89;79.10
64230;BME280;50547;49.498;0.092;2023-12-28T18:02:48;1010.73;;;10.89;78.95
64230;BME280;50547;49.498;0.092;2023-12-28T18:05:17;1010.53;;;10.84;79.27
64230;BME280;50547;49.498;0.092;2023-12-28T18:07:46;1010.83;;;10.83;79.08
64230;BME280;50547;49.498;0.092;2023-12-28T18:10:15;1010.53;;;10.88;78.59
64230;BME280;50547;49.498;0.092;2023-12-28T18:12:44;1010.59;;;10.87;78.92
64230;BME280;50547;49.498;0.092;2023-12-28T18:15:10;1010.73;;;10.86;78.96
64230;BME280;50547;49.498;0.092;2023-12-28T18:17:40;1010.71;;;10.83;79.55
64230;BME280;50547;49.498;0.092;2023-12-28T18:20:09;1010.59;;;10.81;79.22
64230;BME280;50547;49.498;0.092;2023-12-28T18:22:39;1010.71;;;10.84;78.89
64230;BME280;50547;49.498;0.092;2023-12-28T18:25:08;1010.57;;;10.82;79.08
64230;BME280;50547;49.498;0.092;2023-12-28T18:27:37;1010.47;;;10.83;78.89
64230;BME280;50547;49.498;0.092;2023-12-28T18:30:07;1010.59;;;10.89;78.63
64230;BME280;50547;49.498;0.092;2023-12-28T18:32:36;1010.75;;;10.89;78.80
64230;BME280;50547;49.498;0.092;2023-12-28T18:35:06;1010.51;;;10.87;79.08
64230;BME280;50547;49.498;0.092;2023-12-28T18:37:35;1010.53;;;10.87;79.07
64230;BME280;50547;49.498;0.092;2023-12-28T18:40:05;1010.57;;;10.88;79.05
64230;BME280;50547;49.498;0.092;2023-12-28T18:42:34;1010.71;;;10.90;78.89
64230;BME280;50547;49.498;0.092;2023-12-28T18:45:05;1010.71;;;10.85;79.28
64230;BME280;50547;49.498;0.092;2023-12-28T18:47:35;1010.69;;;10.81;79.31
64230;BME280;50547;49.498;0.092;2023-12-28T18:50:05;1010.77;;;10.82;79.21
64230;BME280;50547;49.498;0.092;2023-12-28T18:52:34;1010.61;;;10.81;79.51
64230;BME280;50547;49.498;0.092;2023-12-28T18:55:07;1010.49;;;10.83;79.53
64230;BME280;50547;49.498;0.092;2023-12-28T18:57:36;1010.89;;;10.84;79.57
64230;BME280;50547;49.498;0.092;2023-12-28T19:00:06;1010.85;;;10.85;79.30
64230;BME280;50547;49.498;0.092;2023-12-28T19:02:36;1010.83;;;10.88;79.01
64230;BME280;50547;49.498;0.092;2023-12-28T19:05:05;1010.97;;;10.90;79.14
64230;BME280;50547;49.498;0.092;2023-12-28T19:07:34;1010.91;;;10.87;79.31
64230;BME280;50547;49.498;0.092;2023-12-28T19:10:05;1010.85;;;10.90;79.25
64230;BME280;50547;49.498;0.092;2023-12-28T19:12:34;1010.89;;;10.88;79.27
64230;BME280;50547;49.498;0.092;2023-12-28T19:15:04;1010.83;;;10.86;79.08
64230;BME280;50547;49.498;0.092;2023-12-28T19:17:33;1010.83;;;10.85;79.27
64230;BME280;50547;49.498;0.092;2023-12-28T19:20:03;1010.83;;;10.78;79.81
64230;BME280;50547;49.498;0.092;2023-12-28T19:22:32;1010.87;;;10.81;79.66
64230;BME280;50547;49.498;0.092;2023-12-28T19:25:01;1010.85;;;10.79;79.53
64230;BME280;50547;49.498;0.092;2023-12-28T19:27:30;1010.71;;;10.77;79.68
64230;BME280;50547;49.498;0.092;2023-12-28T19:29:59;1010.89;;;10.78;79.59
64230;BME280;50547;49.498;0.092;2023-12-28T19:32:28;1010.73;;;10.74;79.99
64230;BME280;50547;49.498;0.092;2023-12-28T19:34:57;1011.00;;;10.74;79.85
64230;BME280;50547;49.498;0.092;2023-12-28T19:37:26;1010.91;;;10.79;79.43
64230;BME280;50547;49.498;0.092;2023-12-28T19:39:56;1010.91;;;10.78;79.67
64230;BME280;50547;49.498;0.092;2023-12-28T19:42:25;1010.91;;;10.75;79.96
64230;BME280;50547;49.498;0.092;2023-12-28T19:44:54;1010.79;;;10.70;80.19
64230;BME280;50547;49.498;0.092;2023-12-28T19:47:23;1010.73;;;10.69;80.37
64230;BME280;50547;49.498;0.092;2023-12-28T19:49:49;1010.75;;;10.75;80.31
64230;BME280;50547;49.498;0.092;2023-12-28T19:52:18;1010.85;;;10.75;80.25
64230;BME280;50547;49.498;0.092;2023-12-28T19:54:47;1010.87;;;10.72;80.69
64230;BME280;50547;49.498;0.092;2023-12-28T19:57:17;1010.79;;;10.72;80.63
64230;BME280;50547;49.498;0.092;2023-12-28T19:59:46;1010.71;;;10.73;80.74
64230;BME280;50547;49.498;0.092;2023-12-28T20:02:15;1010.75;;;10.71;80.86
64230;BME280;50547;49.498;0.092;2023-12-28T20:04:45;1010.59;;;10.70;80.64
64230;BME280;50547;49.498;0.092;2023-12-28T20:07:14;1010.75;;;10.72;80.85
64230;BME280;50547;49.498;0.092;2023-12-28T20:09:43;1010.89;;;10.67;81.06
64230;BME280;50547;49.498;0.092;2023-12-28T20:12:09;1010.61;;;10.64;81.59
64230;BME280;50547;49.498;0.092;2023-12-28T20:14:38;1010.49;;;10.64;81.60
64230;BME280;50547;49.498;0.092;2023-12-28T20:17:07;1010.71;;;10.67;80.43
64230;BME280;50547;49.498;0.092;2023-12-28T20:19:33;1010.71;;;10.76;80.39
64230;BME280;50547;49.498;0.092;2023-12-28T20:22:02;1010.71;;;10.72;81.24
64230;BME280;50547;49.498;0.092;2023-12-28T20:24:31;1010.59;;;10.68;81.57
64230;BME280;50547;49.498;0.092;2023-12-28T20:27:01;1010.59;;;10.64;81.82
64230;BME280;50547;49.498;0.092;2023-12-28T20:29:30;1010.55;;;10.62;81.76
64230;BME280;50547;49.498;0.092;2023-12-28T20:31:59;1010.47;;;10.67;81.38
64230;BME280;50547;49.498;0.092;2023-12-28T20:34:25;1010.73;;;10.66;81.37
64230;BME280;50547;49.498;0.092;2023-12-28T20:36:54;1010.45;;;10.58;81.82
64230;BME280;50547;49.498;0.092;2023-12-28T20:39:23;1010.39;;;10.62;81.54
64230;BME280;50547;49.498;0.092;2023-12-28T20:41:53;1010.55;;;10.64;81.40
64230;BME280;50547;49.498;0.092;2023-12-28T20:44:22;1010.47;;;10.68;81.44
64230;BME280;50547;49.498;0.092;2023-12-28T20:46:51;1010.49;;;10.61;82.09
64230;BME280;50547;49.498;0.092;2023-12-28T20:49:17;1010.55;;;10.65;81.64
64230;BME280;50547;49.498;0.092;2023-12-28T20:51:46;1010.29;;;10.66;81.73
64230;BME280;50547;49.498;0.092;2023-12-28T20:54:15;1010.57;;;10.64;81.78
64230;BME280;50547;49.498;0.092;2023-12-28T20:56:41;1010.31;;;10.61;82.24
64230;BME280;50547;49.498;0.092;2023-12-28T20:59:10;1010.51;;;10.64;81.81
64230;BME280;50547;49.498;0.092;2023-12-28T21:01:39;1010.57;;;10.66;81.82
64230;BME280;50547;49.498;0.092;2023-12-28T21:04:09;1010.57;;;10.66;81.94
64230;BME280;50547;49.498;0.092;2023-12-28T21:06:41;1010.55;;;10.68;82.03
64230;BME280;50547;49.498;0.092;2023-12-28T21:09:10;1010.53;;;10.63;82.28
64230;BME280;50547;49.498;0.092;2023-12-28T21:11:53;1010.73;;;10.67;81.84
64230;BME280;50547;49.498;0.092;2023-12-28T21:14:19;1010.57;;;10.71;81.70
64230;BME280;50547;49.498;0.092;2023-12-28T21:16:46;1010.83;;;10.70;82.11
64230;BME280;50547;49.498;0.092;2023-12-28T21:19:15;1010.71;;;10.69;82.19
64230;BME280;50547;49.498;0.092;2023-12-28T21:21:42;1010.93;;;10.71;82.08
64230;BME280;50547;49.498;0.092;2023-12-28T21:24:10;1010.41;;;10.67;82.54
64230;BME280;50547;49.498;0.092;2023-12-28T21:26:42;1010.55;;;10.66;82.30
64230;BME280;50547;49.498;0.092;2023-12-28T21:29:11;1010.49;;;10.67;82.23
64230;BME280;50547;49.498;0.092;2023-12-28T21:31:38;1010.61;;;10.65;82.24
64230;BME280;50547;49.498;0.092;2023-12-28T21:34:07;1010.57;;;10.64;82.66
64230;BME280;50547;49.498;0.092;2023-12-28T21:36:36;1010.75;;;10.63;82.53
64230;BME280;50547;49.498;0.092;2023-12-28T21:39:05;1010.53;;;10.67;82.40
64230;BME280;50547;49.498;0.092;2023-12-28T21:41:34;1010.73;;;10.64;82.45
64230;BME280;50547;49.498;0.092;2023-12-28T21:44:04;1010.71;;;10.65;82.62
64230;BME280;50547;49.498;0.092;2023-12-28T21:46:30;1010.53;;;10.67;82.61
64230;BME280;50547;49.498;0.092;2023-12-28T21:48:59;1010.79;;;10.72;82.36
64230;BME280;50547;49.498;0.092;2023-12-28T21:51:28;1010.69;;;10.67;82.63
64230;BME280;50547;49.498;0.092;2023-12-28T21:54:02;1010.73;;;10.73;82.34
64230;BME280;50547;49.498;0.092;2023-12-28T21:56:31;1010.57;;;10.67;82.49
64230;BME280;50547;49.498;0.092;2023-12-28T21:59:10;1010.61;;;10.74;82.24
64230;BME280;50547;49.498;0.092;2023-12-28T22:01:40;1010.73;;;10.73;82.26
64230;BME280;50547;49.498;0.092;2023-12-28T22:04:09;1010.69;;;10.73;82.27
64230;BME280;50547;49.498;0.092;2023-12-28T22:06:38;1010.71;;;10.73;82.56
64230;BME280;50547;49.498;0.092;2023-12-28T22:09:07;1010.59;;;10.67;83.08
64230;BME280;50547;49.498;0.092;2023-12-28T22:11:37;1010.45;;;10.66;83.34
64230;BME280;50547;49.498;0.092;2023-12-28T22:14:07;1010.75;;;10.65;83.21
64230;BME280;50547;49.498;0.092;2023-12-28T22:16:36;1010.57;;;10.67;82.95
64230;BME280;50547;49.498;0.092;2023-12-28T22:19:05;1010.41;;;10.67;83.07
64230;BME280;50547;49.498;0.092;2023-12-28T22:21:36;1010.47;;;10.68;83.07
64230;BME280;50547;49.498;0.092;2023-12-28T22:24:06;1010.71;;;10.71;82.90
64230;BME280;50547;49.498;0.092;2023-12-28T22:26:35;1010.53;;;10.73;83.07
64230;BME280;50547;49.498;0.092;2023-12-28T22:29:04;1010.55;;;10.73;82.94
64230;BME280;50547;49.498;0.092;2023-12-28T22:31:33;1010.47;;;10.72;83.13
64230;BME280;50547;49.498;0.092;2023-12-28T22:34:02;1010.31;;;10.72;83.19
64230;BME280;50547;49.498;0.092;2023-12-28T22:36:29;1010.45;;;10.72;83.33
64230;BME280;50547;49.498;0.092;2023-12-28T22:38:58;1010.47;;;10.66;83.54
64230;BME280;50547;49.498;0.092;2023-12-28T22:41:27;1010.57;;;10.67;83.53
64230;BME280;50547;49.498;0.092;2023-12-28T22:43:56;1010.71;;;10.66;83.62
64230;BME280;50547;49.498;0.092;2023-12-28T22:46:25;1010.77;;;10.67;83.69
64230;BME280;50547;49.498;0.092;2023-12-28T22:48:54;1010.93;;;10.65;83.88
64230;BME280;50547;49.498;0.092;2023-12-28T22:51:28;1010.23;;;10.60;84.14
64230;BME280;50547;49.498;0.092;2023-12-28T22:53:58;1010.61;;;10.59;84.06
64230;BME280;50547;49.498;0.092;2023-12-28T22:56:27;1010.55;;;10.56;84.28
64230;BME280;50547;49.498;0.092;2023-12-28T22:58:56;1010.71;;;10.56;83.99
64230;BME280;50547;49.498;0.092;2023-12-28T23:01:25;1010.69;;;10.59;83.91
64230;BME280;50547;49.498;0.092;2023-12-28T23:03:54;1010.75;;;10.62;83.92
64230;BME280;50547;49.498;0.092;2023-12-28T23:06:23;1010.73;;;10.57;84.25
64230;BME280;50547;49.498;0.092;2023-12-28T23:08:52;1010.71;;;10.59;84.33
64230;BME280;50547;49.498;0.092;2023-12-28T23:11:21;1010.57;;;10.61;84.33
64230;BME280;50547;49.498;0.092;2023-12-28T23:13:51;1010.83;;;10.55;84.89
64230;BME280;50547;49.498;0.092;2023-12-28T23:16:20;1010.55;;;10.61;84.38
64230;BME280;50547;49.498;0.092;2023-12-28T23:18:50;1010.85;;;10.62;84.30
64230;BME280;50547;49.498;0.092;2023-12-28T23:21:19;1010.75;;;10.64;84.14
64230;BME280;50547;49.498;0.092;2023-12-28T23:23:48;1010.75;;;10.72;83.75
64230;BME280;50547;49.498;0.092;2023-12-28T23:26:18;1010.57;;;10.73;83.51
64230;BME280;50547;49.498;0.092;2023-12-28T23:28:48;1010.79;;;10.77;83.52
64230;BME280;50547;49.498;0.092;2023-12-28T23:31:18;1010.69;;;10.73;84.11
64230;BME280;50547;49.498;0.092;2023-12-28T23:33:45;1010.35;;;10.73;84.30
64230;BME280;50547;49.498;0.092;2023-12-28T23:36:14;1010.79;;;10.72;84.40
64230;BME280;50547;49.498;0.092;2023-12-28T23:38:43;1010.61;;;10.72;84.64
64230;BME280;50547;49.498;0.092;2023-12-28T23:41:12;1010.51;;;10.78;84.20